SXS1PC LTAC-LTDB
Flight info
| Callsign | SXS1PC |
|---|---|
| Flight time | 0h 38m |
| Altitude | 35000 |
| Route | YUCEL UA17 BELSU UL605 KISLA UA17 ERHAN/N0455F340 UA285 SELVI UW75 KEMER |
| Aircraft | B738/M-SDE2E3FGHIRWXY/LB1 |
Departure
| Time | 2026-05-06 21:31 |
|---|---|
| Airport | Esenboğa International Airport (LTAC) |
Arrival
| Time | 2026-05-06 22:10 |
|---|---|
| Airport | Çukurova International Airport (LTDB) |
| Time | Latitude | Longitude | Altitude | Speed | Heading |
|---|---|---|---|---|---|
| 2026-05-06 21:16 | 40.11523 | 32.98997 | 3133 ft | 0 kts | 134° |
| 2026-05-06 21:25 | 40.11525 | 32.98994 | 3133 ft | 2 kts | 134° |
| 2026-05-06 21:25 | 40.11537 | 32.98977 | 3133 ft | 3 kts | 134° |
| 2026-05-06 21:25 | 40.11551 | 32.98958 | 3133 ft | 3 kts | 133° |
| 2026-05-06 21:25 | 40.11565 | 32.98939 | 3133 ft | 3 kts | 133° |
| 2026-05-06 21:26 | 40.11576 | 32.98924 | 3133 ft | 1 kts | 133° |
| 2026-05-06 21:26 | 40.11577 | 32.98923 | 3133 ft | 3 kts | 133° |
| 2026-05-06 21:27 | 40.11581 | 32.98941 | 3134 ft | 43 kts | 109° |
| 2026-05-06 21:28 | 40.11569 | 32.98932 | 3133 ft | 0 kts | 43° |
| 2026-05-06 21:29 | 40.11601 | 32.98947 | 3133 ft | 15 kts | 2° |
| 2026-05-06 21:29 | 40.11682 | 32.98846 | 3133 ft | 17 kts | 306° |
| 2026-05-06 21:29 | 40.11748 | 32.98727 | 3133 ft | 16 kts | 307° |
| 2026-05-06 21:29 | 40.11813 | 32.98612 | 3134 ft | 15 kts | 305° |
| 2026-05-06 21:30 | 40.11834 | 32.98574 | 3134 ft | 15 kts | 305° |
| 2026-05-06 21:30 | 40.11952 | 32.98534 | 3135 ft | 0 kts | 37° |
| 2026-05-06 21:30 | 40.11992 | 32.98572 | 3135 ft | 31 kts | 35° |
| 2026-05-06 21:31 | 40.12402 | 32.98962 | 3133 ft | 112 kts | 36° |
| 2026-05-06 21:31 | 40.13211 | 32.99737 | 3246 ft | 167 kts | 34° |
| 2026-05-06 21:31 | 40.14126 | 33.00661 | 4180 ft | 167 kts | 39° |
| 2026-05-06 21:31 | 40.15057 | 33.01642 | 5039 ft | 179 kts | 39° |
| 2026-05-06 21:32 | 40.16113 | 33.02761 | 5403 ft | 211 kts | 39° |
| 2026-05-06 21:32 | 40.18590 | 33.05418 | 6511 ft | 235 kts | 40° |
| 2026-05-06 21:32 | 40.19796 | 33.06858 | 7382 ft | 236 kts | 54° |
| 2026-05-06 21:33 | 40.20443 | 33.08795 | 8266 ft | 234 kts | 82° |
| 2026-05-06 21:33 | 40.20374 | 33.10916 | 9121 ft | 236 kts | 105° |
| 2026-05-06 21:33 | 40.19704 | 33.12871 | 9972 ft | 237 kts | 124° |
| 2026-05-06 21:33 | 40.18713 | 33.14620 | 10752 ft | 241 kts | 129° |
| 2026-05-06 21:34 | 40.17651 | 33.16344 | 11491 ft | 246 kts | 129° |
| 2026-05-06 21:34 | 40.16566 | 33.18094 | 12276 ft | 250 kts | 129° |
| 2026-05-06 21:34 | 40.15463 | 33.19884 | 13049 ft | 255 kts | 129° |
| 2026-05-06 21:34 | 40.14346 | 33.21710 | 13826 ft | 259 kts | 128° |
| 2026-05-06 21:35 | 40.13214 | 33.23570 | 14532 ft | 263 kts | 128° |
| 2026-05-06 21:35 | 40.12076 | 33.25441 | 15134 ft | 273 kts | 130° |
| 2026-05-06 21:35 | 40.10510 | 33.27002 | 15337 ft | 298 kts | 154° |
| 2026-05-06 21:35 | 40.08551 | 33.28172 | 15544 ft | 323 kts | 156° |
| 2026-05-06 21:36 | 40.06402 | 33.29391 | 15728 ft | 347 kts | 156° |
| 2026-05-06 21:36 | 40.04113 | 33.30697 | 15903 ft | 370 kts | 156° |
| 2026-05-06 21:36 | 40.01713 | 33.32093 | 16336 ft | 383 kts | 156° |
| 2026-05-06 21:36 | 39.99271 | 33.33540 | 17000 ft | 388 kts | 155° |
| 2026-05-06 21:37 | 39.96800 | 33.35022 | 17727 ft | 392 kts | 155° |
| 2026-05-06 21:37 | 39.94310 | 33.36525 | 18414 ft | 397 kts | 155° |
| 2026-05-06 21:37 | 39.91788 | 33.38054 | 18989 ft | 403 kts | 155° |
| 2026-05-06 21:37 | 39.89268 | 33.39582 | 19558 ft | 408 kts | 155° |
| 2026-05-06 21:38 | 39.86679 | 33.41152 | 20139 ft | 412 kts | 155° |
| 2026-05-06 21:38 | 39.84060 | 33.42740 | 20702 ft | 418 kts | 155° |
| 2026-05-06 21:38 | 39.81408 | 33.44345 | 21266 ft | 422 kts | 155° |
| 2026-05-06 21:38 | 39.78733 | 33.45963 | 21816 ft | 427 kts | 155° |
| 2026-05-06 21:39 | 39.76024 | 33.47601 | 22353 ft | 432 kts | 156° |
| 2026-05-06 21:39 | 39.73270 | 33.49263 | 22891 ft | 436 kts | 156° |
| 2026-05-06 21:39 | 39.70496 | 33.50937 | 23427 ft | 441 kts | 156° |
| 2026-05-06 21:39 | 39.67695 | 33.52626 | 23903 ft | 445 kts | 156° |
| 2026-05-06 21:40 | 39.64873 | 33.54326 | 24351 ft | 449 kts | 156° |
| 2026-05-06 21:40 | 39.62028 | 33.56039 | 24828 ft | 452 kts | 156° |
| 2026-05-06 21:40 | 39.59166 | 33.57758 | 25272 ft | 455 kts | 156° |
| 2026-05-06 21:40 | 39.56279 | 33.59473 | 25700 ft | 458 kts | 157° |
| 2026-05-06 21:41 | 39.53377 | 33.61121 | 26119 ft | 461 kts | 158° |
| 2026-05-06 21:41 | 39.50412 | 33.62763 | 26529 ft | 464 kts | 159° |
| 2026-05-06 21:41 | 39.47429 | 33.64400 | 26941 ft | 467 kts | 159° |
| 2026-05-06 21:41 | 39.44427 | 33.66048 | 27339 ft | 470 kts | 159° |
| 2026-05-06 21:42 | 39.41401 | 33.67714 | 27731 ft | 473 kts | 159° |
| 2026-05-06 21:42 | 39.38361 | 33.69392 | 28123 ft | 476 kts | 159° |
| 2026-05-06 21:42 | 39.35302 | 33.71084 | 28501 ft | 479 kts | 159° |
| 2026-05-06 21:42 | 39.32262 | 33.72768 | 28862 ft | 482 kts | 159° |
| 2026-05-06 21:43 | 39.29163 | 33.74484 | 29221 ft | 485 kts | 159° |
| 2026-05-06 21:43 | 39.26060 | 33.76201 | 29597 ft | 487 kts | 159° |
| 2026-05-06 21:43 | 39.22948 | 33.77922 | 30097 ft | 486 kts | 159° |
| 2026-05-06 21:43 | 39.19851 | 33.79633 | 30583 ft | 484 kts | 159° |
| 2026-05-06 21:44 | 39.16755 | 33.81342 | 30893 ft | 486 kts | 159° |
| 2026-05-06 21:44 | 39.13629 | 33.83064 | 31044 ft | 491 kts | 159° |
| 2026-05-06 21:44 | 39.10459 | 33.84807 | 31193 ft | 496 kts | 159° |
| 2026-05-06 21:44 | 39.07312 | 33.86537 | 31404 ft | 499 kts | 159° |
| 2026-05-06 21:45 | 39.04117 | 33.88292 | 31733 ft | 499 kts | 159° |
| 2026-05-06 21:45 | 39.00935 | 33.90040 | 32155 ft | 496 kts | 159° |
| 2026-05-06 21:45 | 38.97767 | 33.91778 | 32583 ft | 494 kts | 159° |
| 2026-05-06 21:45 | 38.94609 | 33.93509 | 32968 ft | 493 kts | 159° |
| 2026-05-06 21:46 | 38.91450 | 33.95238 | 33164 ft | 495 kts | 159° |
| 2026-05-06 21:46 | 38.88270 | 33.96975 | 33145 ft | 496 kts | 159° |
| 2026-05-06 21:46 | 38.81944 | 34.00429 | 33152 ft | 492 kts | 159° |
| 2026-05-06 21:47 | 38.75658 | 34.03854 | 33154 ft | 490 kts | 159° |
| 2026-05-06 21:47 | 38.69373 | 34.07271 | 32809 ft | 493 kts | 159° |
| 2026-05-06 21:48 | 38.66218 | 34.08984 | 32549 ft | 491 kts | 159° |
| 2026-05-06 21:48 | 38.63079 | 34.10687 | 32294 ft | 490 kts | 159° |
| 2026-05-06 21:48 | 38.59961 | 34.12377 | 32041 ft | 491 kts | 159° |
| 2026-05-06 21:48 | 38.56805 | 34.14086 | 31795 ft | 492 kts | 160° |
| 2026-05-06 21:49 | 38.53652 | 34.15792 | 31537 ft | 492 kts | 160° |
| 2026-05-06 21:49 | 38.50498 | 34.17496 | 31286 ft | 492 kts | 160° |
| 2026-05-06 21:49 | 38.47334 | 34.19204 | 31046 ft | 492 kts | 160° |
| 2026-05-06 21:49 | 38.44170 | 34.20911 | 30792 ft | 492 kts | 160° |
| 2026-05-06 21:50 | 38.41060 | 34.22587 | 30558 ft | 492 kts | 160° |
| 2026-05-06 21:50 | 38.37902 | 34.24288 | 30314 ft | 491 kts | 160° |
| 2026-05-06 21:50 | 38.34744 | 34.25986 | 30047 ft | 491 kts | 160° |
| 2026-05-06 21:50 | 38.31604 | 34.27673 | 29758 ft | 491 kts | 160° |
| 2026-05-06 21:51 | 38.28461 | 34.29361 | 29470 ft | 491 kts | 160° |
| 2026-05-06 21:51 | 38.25294 | 34.31059 | 29207 ft | 493 kts | 160° |
| 2026-05-06 21:51 | 38.22161 | 34.32737 | 28934 ft | 494 kts | 160° |
| 2026-05-06 21:51 | 38.18996 | 34.34432 | 28659 ft | 493 kts | 160° |
| 2026-05-06 21:52 | 38.15832 | 34.36124 | 28370 ft | 493 kts | 160° |
| 2026-05-06 21:52 | 38.12652 | 34.37823 | 27801 ft | 495 kts | 160° |
| 2026-05-06 21:52 | 38.09486 | 34.39514 | 27241 ft | 494 kts | 160° |
| 2026-05-06 21:52 | 38.06314 | 34.41207 | 26670 ft | 495 kts | 159° |
| 2026-05-06 21:53 | 38.03126 | 34.42905 | 26110 ft | 496 kts | 159° |
| 2026-05-06 21:53 | 38.01017 | 34.44028 | 25733 ft | 497 kts | 159° |
| 2026-05-06 21:53 | 37.97824 | 34.45727 | 25164 ft | 495 kts | 159° |
| 2026-05-06 21:53 | 37.93631 | 34.47958 | 24406 ft | 484 kts | 159° |
| 2026-05-06 21:54 | 37.91578 | 34.49049 | 24040 ft | 479 kts | 159° |
| 2026-05-06 21:54 | 37.88533 | 34.50668 | 23517 ft | 476 kts | 159° |
| 2026-05-06 21:54 | 37.85494 | 34.52307 | 23009 ft | 471 kts | 159° |
| 2026-05-06 21:54 | 37.82495 | 34.53936 | 22473 ft | 467 kts | 159° |
| 2026-05-06 21:55 | 37.79517 | 34.55558 | 21912 ft | 465 kts | 159° |
| 2026-05-06 21:55 | 37.76550 | 34.57172 | 21353 ft | 462 kts | 159° |
| 2026-05-06 21:55 | 37.73601 | 34.58773 | 20820 ft | 460 kts | 159° |
| 2026-05-06 21:55 | 37.70678 | 34.60356 | 20276 ft | 457 kts | 159° |
| 2026-05-06 21:56 | 37.67758 | 34.61935 | 19753 ft | 453 kts | 159° |
| 2026-05-06 21:56 | 37.64877 | 34.63491 | 19220 ft | 449 kts | 159° |
| 2026-05-06 21:56 | 37.62015 | 34.65036 | 18705 ft | 445 kts | 159° |
| 2026-05-06 21:56 | 37.59183 | 34.66562 | 18134 ft | 438 kts | 159° |
| 2026-05-06 21:57 | 37.56445 | 34.68038 | 17575 ft | 429 kts | 159° |
| 2026-05-06 21:57 | 37.53729 | 34.69500 | 17046 ft | 420 kts | 159° |
| 2026-05-06 21:57 | 37.51060 | 34.70935 | 16540 ft | 415 kts | 159° |
| 2026-05-06 21:57 | 37.48417 | 34.72354 | 16046 ft | 413 kts | 158° |
| 2026-05-06 21:58 | 37.45775 | 34.73772 | 15545 ft | 411 kts | 158° |
| 2026-05-06 21:58 | 37.43155 | 34.75177 | 15051 ft | 409 kts | 158° |
| 2026-05-06 21:58 | 37.40541 | 34.76578 | 14569 ft | 407 kts | 158° |
| 2026-05-06 21:58 | 37.37942 | 34.77972 | 14070 ft | 405 kts | 158° |
| 2026-05-06 21:59 | 37.35360 | 34.79355 | 13514 ft | 403 kts | 158° |
| 2026-05-06 21:59 | 37.32793 | 34.80728 | 13009 ft | 399 kts | 158° |
| 2026-05-06 21:59 | 37.30220 | 34.81984 | 12543 ft | 393 kts | 163° |
| 2026-05-06 21:59 | 37.27605 | 34.82881 | 12026 ft | 389 kts | 167° |
| 2026-05-06 22:00 | 37.24985 | 34.83627 | 11445 ft | 383 kts | 168° |
| 2026-05-06 22:00 | 37.22401 | 34.84337 | 10872 ft | 377 kts | 168° |
| 2026-05-06 22:00 | 37.19867 | 34.85055 | 10310 ft | 372 kts | 168° |
| 2026-05-06 22:00 | 37.17352 | 34.85792 | 9729 ft | 367 kts | 167° |
| 2026-05-06 22:01 | 37.14883 | 34.86535 | 9129 ft | 363 kts | 167° |
| 2026-05-06 22:01 | 37.12436 | 34.87281 | 8535 ft | 360 kts | 166° |
| 2026-05-06 22:01 | 37.10013 | 34.88023 | 7943 ft | 356 kts | 166° |
| 2026-05-06 22:01 | 37.07621 | 34.88757 | 7379 ft | 353 kts | 166° |
| 2026-05-06 22:02 | 37.05268 | 34.89478 | 7128 ft | 341 kts | 166° |
| 2026-05-06 22:02 | 37.03022 | 34.90165 | 7035 ft | 336 kts | 166° |
| 2026-05-06 22:02 | 37.00687 | 34.90880 | 7008 ft | 351 kts | 166° |
| 2026-05-06 22:02 | 36.98300 | 34.91610 | 7009 ft | 355 kts | 166° |
| 2026-05-06 22:03 | 36.95898 | 34.92341 | 6996 ft | 355 kts | 167° |
| 2026-05-06 22:03 | 36.93462 | 34.92556 | 6953 ft | 347 kts | 187° |
| 2026-05-06 22:03 | 36.91224 | 34.91716 | 6590 ft | 329 kts | 207° |
| 2026-05-06 22:03 | 36.89301 | 34.90301 | 6215 ft | 313 kts | 212° |
| 2026-05-06 22:04 | 36.87500 | 34.88886 | 5814 ft | 300 kts | 212° |
| 2026-05-06 22:04 | 36.85752 | 34.87524 | 5434 ft | 289 kts | 211° |
| 2026-05-06 22:04 | 36.84081 | 34.86285 | 5032 ft | 268 kts | 203° |
| 2026-05-06 22:04 | 36.82333 | 34.85988 | 4633 ft | 247 kts | 169° |
| 2026-05-06 22:05 | 36.80805 | 34.86758 | 4234 ft | 232 kts | 145° |
| 2026-05-06 22:05 | 36.79673 | 34.88087 | 3842 ft | 216 kts | 125° |
| 2026-05-06 22:05 | 36.78977 | 34.89682 | 3434 ft | 204 kts | 109° |
| 2026-05-06 22:05 | 36.78693 | 34.91364 | 3003 ft | 194 kts | 91° |
| 2026-05-06 22:06 | 36.78745 | 34.93009 | 2639 ft | 186 kts | 86° |
| 2026-05-06 22:06 | 36.78838 | 34.94542 | 2418 ft | 173 kts | 85° |
| 2026-05-06 22:06 | 36.78927 | 34.95990 | 2266 ft | 163 kts | 85° |
| 2026-05-06 22:06 | 36.79012 | 34.97374 | 2170 ft | 159 kts | 85° |
| 2026-05-06 22:07 | 36.79191 | 34.98752 | 2047 ft | 163 kts | 63° |
| 2026-05-06 22:07 | 36.79965 | 34.99740 | 1931 ft | 162 kts | 37° |
| 2026-05-06 22:07 | 36.80854 | 35.00602 | 1736 ft | 157 kts | 38° |
| 2026-05-06 22:07 | 36.81718 | 35.01403 | 1484 ft | 152 kts | 34° |
| 2026-05-06 22:08 | 36.82597 | 35.02107 | 1280 ft | 149 kts | 31° |
| 2026-05-06 22:08 | 36.83469 | 35.02787 | 1111 ft | 148 kts | 31° |
| 2026-05-06 22:08 | 36.84364 | 35.03460 | 872 ft | 151 kts | 30° |
| 2026-05-06 22:08 | 36.85253 | 35.04140 | 669 ft | 150 kts | 31° |
| 2026-05-06 22:09 | 36.86135 | 35.04826 | 456 ft | 149 kts | 31° |
| 2026-05-06 22:09 | 36.87014 | 35.05488 | 257 ft | 148 kts | 30° |
| 2026-05-06 22:09 | 36.87890 | 35.06157 | 62 ft | 147 kts | 30° |
| 2026-05-06 22:09 | 36.88667 | 35.06750 | 46 ft | 107 kts | 31° |
| 2026-05-06 22:10 | 36.89134 | 35.07108 | 45 ft | 47 kts | 31° |
| 2026-05-06 22:10 | 36.89306 | 35.07152 | 47 ft | 15 kts | 310° |
| 2026-05-06 22:10 | 36.89362 | 35.07041 | 47 ft | 15 kts | 301° |
| 2026-05-06 22:10 | 36.89414 | 35.06933 | 44 ft | 14 kts | 301° |
| 2026-05-06 22:11 | 36.89463 | 35.06832 | 48 ft | 14 kts | 302° |
| 2026-05-06 22:11 | 36.89513 | 35.06735 | 42 ft | 13 kts | 302° |
| 2026-05-06 22:11 | 36.89568 | 35.06652 | 46 ft | 13 kts | 347° |
| 2026-05-06 22:11 | 36.89642 | 35.06707 | 45 ft | 12 kts | 32° |
| 2026-05-06 22:12 | 36.89714 | 35.06763 | 44 ft | 12 kts | 32° |
| 2026-05-06 22:12 | 36.89785 | 35.06818 | 48 ft | 12 kts | 32° |
| 2026-05-06 22:12 | 36.89854 | 35.06871 | 48 ft | 11 kts | 32° |
| 2026-05-06 22:12 | 36.89920 | 35.06923 | 48 ft | 11 kts | 32° |
| 2026-05-06 22:13 | 36.89971 | 35.06950 | 47 ft | 6 kts | 345° |
| 2026-05-06 22:13 | 36.89998 | 35.06908 | 47 ft | 6 kts | 302° |
| 2026-05-06 22:13 | 36.90014 | 35.06875 | 42 ft | 1 kts | 302° |
| 2026-05-06 22:13 | 36.90018 | 35.06868 | 44 ft | 0 kts | 301° |